Time;durP1;ratioP1;P1;durP2;ratioP2;P2;SDS_P1;SDS_P2;PMS_P1;PMS_P2;Temp;Humidity;BMP_temperature;BMP_pressure;BME280_temperature;BME280_humidity;BME280_pressure;Samples;Min_cycle;Max_cycle;Signal;HPM_P1;HPM_P2
2022/01/11 00:00:41;;;;;;;22.30;10.80;;;;;;;-2.64;75.73;99629.44;106270;1279;22592;-80
2022/01/11 00:03:17;;;;;;;22.60;10.80;;;;;;;-2.67;76.13;99629.24;106043;1280;138762;-82
2022/01/11 00:08:15;;;;;;;22.10;12.50;;;;;;;-2.68;76.07;99633.32;105898;1278;138763;-79
2022/01/11 00:10:50;;;;;;;25.00;12.70;;;;;;;-2.66;75.94;99632.96;106149;1278;25420;-79
2022/01/11 00:13:19;;;;;;;24.60;12.10;;;;;;;-2.65;75.65;99634.89;106319;1280;22724;-79
2022/01/11 00:15:48;;;;;;;23.00;12.20;;;;;;;-2.63;75.98;99639.33;106310;1280;138166;-79
2022/01/11 00:18:15;;;;;;;23.50;12.70;;;;;;;-2.60;76.31;99641.48;106219;1280;22562;-79
2022/01/11 00:20:41;;;;;;;22.80;11.10;;;;;;;-2.57;75.93;99640.71;106035;1279;137635;-81
2022/01/11 00:25:41;;;;;;;24.40;11.70;;;;;;;-2.56;75.82;99639.79;105991;1280;137666;-80
2022/01/11 00:28:09;;;;;;;26.20;12.90;;;;;;;-2.58;75.69;99640.59;106104;1281;22577;-79
2022/01/11 00:30:43;;;;;;;24.70;11.90;;;;;;;-2.58;75.70;99643.88;106060;1278;25336;-80
2022/01/11 00:33:18;;;;;;;22.90;11.90;;;;;;;-2.59;75.33;99645.91;106197;1280;139342;-80
2022/01/11 00:35:49;;;;;;;21.30;12.70;;;;;;;-2.61;75.37;99646.22;106197;1280;25436;-80
2022/01/11 00:38:18;;;;;;;23.50;11.30;;;;;;;-2.59;75.59;99646.79;105819;1280;138489;-81
2022/01/11 00:40:49;;;;;;;24.50;12.30;;;;;;;-2.54;75.68;99649.55;106254;1280;25436;-80
2022/01/11 00:43:17;;;;;;;23.90;11.90;;;;;;;-2.50;76.22;99650.41;106575;1277;31604;-80
2022/01/11 00:45:46;;;;;;;23.70;11.30;;;;;;;-2.45;76.16;99655.60;108640;1280;138044;-81
2022/01/11 00:48:14;;;;;;;24.50;11.40;;;;;;;-2.42;75.97;99653.14;107458;1277;22588;-80
2022/01/11 00:50:41;;;;;;;23.60;12.00;;;;;;;-2.40;76.01;99656.73;106034;1280;138104;-80
2022/01/11 00:53:10;;;;;;;23.80;13.10;;;;;;;-2.39;76.06;99655.86;105855;1280;25451;-80
2022/01/11 00:55:40;;;;;;;23.00;10.20;;;;;;;-2.36;76.08;99656.88;106186;1279;138298;-80
2022/01/11 00:58:07;;;;;;;25.60;12.90;;;;;;;-2.39;75.66;99656.06;106001;1279;22592;-80
2022/01/11 01:00:38;;;;;;;23.80;13.00;;;;;;;-2.41;75.63;99656.24;105948;1279;22554;-80
2022/01/11 01:03:06;;;;;;;21.50;11.70;;;;;;;-2.43;75.73;99656.60;106124;1279;138440;-80
2022/01/11 01:05:33;;;;;;;26.40;11.50;;;;;;;-2.47;75.40;99658.37;106186;1281;23330;-80
2022/01/11 01:08:02;;;;;;;23.80;13.10;;;;;;;-2.51;75.52;99658.83;106262;1280;138287;-80
2022/01/11 01:10:46;;;;;;;22.30;12.00;;;;;;;-2.49;75.44;99656.39;106149;1280;22568;-80
2022/01/11 01:13:19;;;;;;;22.40;11.40;;;;;;;-2.46;75.69;99654.05;106127;1279;27275;-81
2022/01/11 01:15:51;;;;;;;23.10;12.10;;;;;;;-2.43;75.94;99656.76;106057;1279;137995;-80
2022/01/11 01:18:26;;;;;;;24.30;11.90;;;;;;;-2.42;75.72;99657.02;106286;1279;22572;-80
2022/01/11 01:20:54;;;;;;;23.70;12.00;;;;;;;-2.40;75.80;99652.46;106021;1279;138563;-80
2022/01/11 01:23:23;;;;;;;23.10;11.90;;;;;;;-2.40;75.90;99656.83;106307;1280;22639;-80
2022/01/11 01:25:50;;;;;;;25.30;12.40;;;;;;;-2.40;76.06;99663.11;106113;1279;137788;-81
2022/01/11 01:28:17;;;;;;;21.80;10.60;;;;;;;-2.41;76.12;99660.92;106017;1279;26518;-80
2022/01/11 01:30:44;;;;;;;24.20;11.90;;;;;;;-2.43;76.24;99667.48;106326;1279;22576;-80
2022/01/11 01:33:11;;;;;;;22.20;12.30;;;;;;;-2.46;76.29;99668.23;106133;1279;137891;-80
2022/01/11 01:35:48;;;;;;;26.00;11.90;;;;;;;-2.48;76.25;99667.88;105951;1281;24231;-80
2022/01/11 01:38:22;;;;;;;22.30;11.40;;;;;;;-2.50;76.21;99667.15;106084;1280;142351;-80
2022/01/11 01:40:51;;;;;;;23.40;12.20;;;;;;;-2.52;76.28;99668.88;106016;1281;22589;-80
2022/01/11 01:43:19;;;;;;;21.50;12.50;;;;;;;-2.51;75.95;99670.92;106240;1279;23304;-80
2022/01/11 01:45:49;;;;;;;24.10;11.50;;;;;;;-2.48;76.13;99676.61;106053;1279;138162;-80
2022/01/11 01:48:16;;;;;;;19.80;11.30;;;;;;;-2.46;76.29;99677.69;106118;1279;24266;-79
2022/01/11 01:50:43;;;;;;;22.60;10.10;;;;;;;-2.46;76.25;99678.20;105826;1279;138241;-79
2022/01/11 01:53:12;;;;;;;16.80;8.40;;;;;;;-2.49;76.27;99676.83;106337;1279;24427;-79
2022/01/11 01:55:43;;;;;;;21.40;10.70;;;;;;;-2.53;76.01;99681.98;106049;1277;137726;-80
2022/01/11 01:58:11;;;;;;;21.20;10.10;;;;;;;-2.57;76.31;99684.09;106048;1281;22573;-80
2022/01/11 02:00:43;;;;;;;21.00;9.80;;;;;;;-2.58;76.45;99686.38;106003;1281;22592;-79
2022/01/11 02:03:15;;;;;;;17.40;8.90;;;;;;;-2.62;76.71;99689.89;106001;1278;137557;-80
2022/01/11 02:05:42;;;;;;;20.00;10.60;;;;;;;-2.65;76.50;99687.65;106382;1279;24295;-80
2022/01/11 02:08:10;;;;;;;20.70;10.40;;;;;;;-2.65;77.11;99688.38;105751;1279;138650;-80
2022/01/11 02:10:38;;;;;;;22.20;11.40;;;;;;;-2.65;76.81;99688.35;106223;1279;25545;-80
2022/01/11 02:13:08;;;;;;;20.90;10.40;;;;;;;-2.64;77.01;99686.14;106177;1279;22576;-80
2022/01/11 02:15:36;;;;;;;20.90;10.60;;;;;;;-2.61;77.09;99689.22;106086;1280;138408;-79
2022/01/11 02:18:25;;;;;;;24.20;10.30;;;;;;;-2.58;76.95;99691.09;106332;1278;25382;-80
2022/01/11 02:20:56;;;;;;;20.70;9.40;;;;;;;-2.54;76.73;99692.73;106151;1280;137722;-80
2022/01/11 02:23:28;;;;;;;20.70;9.50;;;;;;;-2.52;76.45;99694.19;106031;1280;25253;-80
2022/01/11 02:25:57;;;;;;;22.90;10.30;;;;;;;-2.51;76.81;99695.13;106108;1279;137701;-80
2022/01/11 02:28:25;;;;;;;21.10;11.40;;;;;;;-2.50;76.72;99693.48;106108;1279;25784;-80
2022/01/11 02:30:53;;;;;;;16.70;8.60;;;;;;;-2.50;76.55;99699.48;106215;1279;24299;-80
2022/01/11 02:33:35;;;;;;;19.40;9.60;;;;;;;-2.51;76.20;99697.48;106346;1279;137704;-79
2022/01/11 02:36:30;;;;;;;19.60;9.90;;;;;;;-2.56;76.71;99699.83;106238;1280;24300;-79
2022/01/11 02:38:58;;;;;;;18.90;9.40;;;;;;;-2.59;76.52;99705.44;106169;1280;137746;-79
2022/01/11 02:41:27;;;;;;;24.90;11.30;;;;;;;-2.62;76.30;99703.42;106011;1280;24305;-79
2022/01/11 02:43:57;;;;;;;21.10;10.20;;;;;;;-2.65;76.73;99706.48;105820;1279;138749;-80
2022/01/11 02:46:25;;;;;;;18.10;9.70;;;;;;;-2.64;76.83;99704.61;105929;1279;22591;-80
2022/01/11 02:48:55;;;;;;;17.60;9.70;;;;;;;-2.63;76.76;99704.14;106065;1277;24323;-80
2022/01/11 02:51:27;;;;;;;17.60;9.60;;;;;;;-2.61;76.59;99704.58;106114;1276;137521;-80
2022/01/11 02:53:59;;;;;;;15.20;7.40;;;;;;;-2.62;76.16;99708.14;106413;1277;22566;-80
2022/01/11 02:56:26;;;;;;;18.20;9.20;;;;;;;-2.64;75.89;99709.10;105880;1277;137699;-80
2022/01/11 02:58:53;;;;;;;18.80;8.80;;;;;;;-2.68;75.78;99714.17;105839;1277;22581;-80
2022/01/11 03:01:20;;;;;;;15.80;8.70;;;;;;;-2.73;75.67;99719.38;105709;1277;25302;-80
2022/01/11 03:03:47;;;;;;;22.20;9.10;;;;;;;-2.78;76.02;99719.83;105869;1277;137729;-80
2022/01/11 03:06:14;;;;;;;16.90;7.90;;;;;;;-2.83;75.49;99720.38;105701;1278;25504;-80
2022/01/11 03:08:44;;;;;;;18.80;9.60;;;;;;;-2.88;75.22;99727.94;105959;1277;138181;-80
2022/01/11 03:11:21;;;;;;;18.80;10.30;;;;;;;-2.94;75.01;99729.13;106068;1277;25272;-80
2022/01/11 03:13:51;;;;;;;;;;;;;;;-2.94;75.11;99734.31;105827;1278;138827;-80
2022/01/11 03:16:19;;;;;;;19.20;8.50;;;;;;;-2.95;75.10;99735.39;105836;1278;31585;-80
2022/01/11 03:18:47;;;;;;;15.10;7.20;;;;;;;-2.96;75.14;99739.23;105889;1277;22716;-81
2022/01/11 03:21:16;;;;;;;14.90;7.70;;;;;;;-2.98;74.78;99746.76;105644;1277;137942;-81
2022/01/11 03:23:43;;;;;;;19.30;8.60;;;;;;;-3.03;74.26;99745.02;105867;1277;25255;-81
2022/01/11 03:26:10;;;;;;;17.00;8.60;;;;;;;-3.10;74.19;99749.82;105922;1277;138015;-81
2022/01/11 03:28:37;;;;;;;16.30;7.30;;;;;;;-3.15;74.26;99754.48;105972;1278;24989;-81
2022/01/11 03:31:06;;;;;;;13.60;7.10;;;;;;;-3.20;74.20;99753.99;105963;1277;25255;-80
2022/01/11 03:33:40;;;;;;;16.30;9.80;;;;;;;-3.27;74.09;99756.46;106009;1278;137829;-81
2022/01/11 03:36:07;;;;;;;18.80;11.20;;;;;;;-3.28;74.11;99758.21;105994;1277;25493;-81
2022/01/11 03:38:34;;;;;;;17.80;8.70;;;;;;;-3.28;74.50;99761.05;105861;1277;138781;-84
2022/01/11 03:41:06;;;;;;;17.80;8.90;;;;;;;-3.27;74.66;99762.19;106123;1277;24224;-85
2022/01/11 03:43:33;;;;;;;18.30;8.10;;;;;;;-3.27;74.36;99764.29;105943;1277;22547;-81
2022/01/11 03:45:59;;;;;;;16.00;8.70;;;;;;;-3.28;74.20;99761.34;105905;1277;138049;-81
2022/01/11 03:48:25;;;;;;;16.30;9.10;;;;;;;-3.29;74.23;99766.30;105958;1277;23344;-81
2022/01/11 03:50:54;;;;;;;17.60;9.40;;;;;;;-3.32;74.30;99769.90;105834;1278;137682;-81
2022/01/11 03:53:39;;;;;;;15.80;8.70;;;;;;;-3.36;74.17;99770.21;105975;1277;24224;-81
2022/01/11 03:56:21;;;;;;;14.50;8.20;;;;;;;-3.39;74.20;99777.24;106035;1277;138048;-79
2022/01/11 03:58:50;;;;;;;16.00;9.50;;;;;;;-3.42;74.24;99779.77;105940;1277;23014;-81
2022/01/11 04:01:17;;;;;;;19.70;10.20;;;;;;;-3.45;73.53;99778.67;106078;1277;25277;-83
2022/01/11 04:03:45;;;;;;;16.10;8.80;;;;;;;-3.46;74.03;99781.61;105538;1277;138292;-82
2022/01/11 04:06:11;;;;;;;16.40;10.00;;;;;;;-3.47;73.58;99782.60;105682;1277;22620;-80
2022/01/11 04:08:37;;;;;;;19.00;9.90;;;;;;;-3.45;73.08;99779.12;105670;1277;138451;-79
2022/01/11 04:11:05;;;;;;;17.60;9.20;;;;;;;-3.42;73.06;99784.19;105999;1277;22617;-80
2022/01/11 04:13:31;;;;;;;17.00;8.70;;;;;;;-3.39;73.06;99790.00;105969;1278;23244;-80
2022/01/11 04:15:58;;;;;;;20.50;10.30;;;;;;;-3.38;73.37;99793.45;105832;1277;137950;-80
2022/01/11 04:18:24;;;;;;;20.30;10.10;;;;;;;-3.36;73.27;99792.94;105871;1277;24470;-83
2022/01/11 04:20:50;;;;;;;21.30;10.30;;;;;;;-3.34;73.94;99791.88;105869;1277;137912;-79
2022/01/11 04:23:16;;;;;;;19.70;9.60;;;;;;;-3.33;73.78;99793.75;105959;1277;22727;-79
2022/01/11 04:25:43;;;;;;;13.60;7.40;;;;;;;-3.34;74.33;99797.05;105956;1277;137915;-79
2022/01/11 04:28:09;;;;;;;18.20;9.40;;;;;;;-3.38;73.92;99792.42;107637;1277;22645;-80
2022/01/11 04:30:37;;;;;;;21.60;10.30;;;;;;;-3.40;74.46;99798.96;108701;1277;22526;-80
2022/01/11 04:33:05;;;;;;;18.30;8.90;;;;;;;-3.41;74.30;99796.34;106157;1279;138655;-79
2022/01/11 04:35:31;;;;;;;15.80;9.20;;;;;;;-3.44;73.83;99796.57;105945;1277;22547;-79
2022/01/11 04:37:58;;;;;;;19.00;9.40;;;;;;;-3.43;73.92;99803.10;105921;1277;139316;-79
2022/01/11 04:40:26;;;;;;;13.20;7.90;;;;;;;-3.41;73.80;99805.06;106366;1276;22886;-79
2022/01/11 04:42:52;;;;;;;17.30;8.90;;;;;;;-3.38;74.12;99805.35;105934;1277;22782;-79
2022/01/11 04:45:19;;;;;;;15.80;8.60;;;;;;;-3.37;74.23;99805.95;106016;1277;138053;-79
2022/01/11 04:47:52;;;;;;;18.80;8.80;;;;;;;-3.35;73.91;99809.72;106313;1277;22587;-80
2022/01/11 04:50:18;;;;;;;16.70;8.80;;;;;;;-3.33;73.76;99814.02;105926;1277;138554;-79
2022/01/11 04:52:45;;;;;;;17.30;8.80;;;;;;;-3.32;74.29;99816.97;105974;1277;23205;-79
2022/01/11 04:55:12;;;;;;;13.90;7.00;;;;;;;-3.32;74.16;99813.05;106087;1277;22596;-79
2022/01/11 04:57:39;;;;;;;11.10;6.60;;;;;;;-3.33;74.10;99816.33;105943;1277;137817;-81
2022/01/11 05:00:06;;;;;;;11.40;6.50;;;;;;;-3.36;74.07;99818.71;106088;1277;24302;-81
2022/01/11 05:02:34;;;;;;;15.00;7.80;;;;;;;-3.41;73.80;99816.05;105952;1277;138515;-81
2022/01/11 05:05:00;;;;;;;16.00;7.50;;;;;;;-3.43;74.13;99817.46;106029;1277;25378;-80
2022/01/11 05:07:27;;;;;;;10.10;5.90;;;;;;;-3.43;73.89;99811.42;105838;1277;24279;-80
2022/01/11 05:09:54;;;;;;;15.40;6.80;;;;;;;-3.44;74.18;99816.23;105795;1278;137765;-80
2022/01/11 05:12:20;;;;;;;9.50;6.40;;;;;;;-3.44;74.31;99816.60;105927;1278;25269;-79
2022/01/11 05:14:46;;;;;;;14.60;7.50;;;;;;;-3.42;74.07;99819.34;105844;1276;138360;-83
2022/01/11 05:17:12;;;;;;;12.80;6.90;;;;;;;-3.40;74.74;99824.35;105920;1277;22815;-81
2022/01/11 05:19:39;;;;;;;15.10;8.10;;;;;;;-3.39;74.22;99828.83;105763;1277;138158;-81
2022/01/11 05:22:05;;;;;;;17.10;8.80;;;;;;;-3.38;74.57;99828.60;106077;1277;24460;-81
2022/01/11 05:24:31;;;;;;;12.30;7.10;;;;;;;-3.37;74.57;99833.70;105977;1277;24092;-81
2022/01/11 05:26:58;;;;;;;15.10;8.00;;;;;;;-3.39;74.53;99838.30;105932;1279;137790;-81
2022/01/11 05:29:24;;;;;;;15.70;7.70;;;;;;;-3.40;74.87;99845.48;105927;1278;22580;-79
2022/01/11 05:31:50;;;;;;;17.90;7.80;;;;;;;-3.40;75.16;99847.41;105724;1277;139276;-79
2022/01/11 05:34:17;;;;;;;14.80;6.60;;;;;;;-3.40;75.23;99853.13;105823;1277;22668;-80
2022/01/11 05:36:43;;;;;;;19.40;9.50;;;;;;;-3.41;74.85;99852.80;106135;1277;23930;-80
2022/01/11 05:39:09;;;;;;;18.80;8.90;;;;;;;-3.41;75.14;99852.48;105617;1279;138310;-80
2022/01/11 05:41:36;;;;;;;17.80;8.50;;;;;;;-3.38;74.97;99852.98;105822;1278;22836;-81
2022/01/11 05:44:02;;;;;;;15.90;7.90;;;;;;;-3.35;75.20;99854.44;105873;1277;137822;-80
2022/01/11 05:46:31;;;;;;;14.90;7.20;;;;;;;-3.32;74.92;99855.14;105699;1279;24257;-80
2022/01/11 05:48:58;;;;;;;13.80;7.30;;;;;;;-3.32;75.01;99855.64;105829;1278;22739;-80
2022/01/11 05:51:26;;;;;;;13.90;7.30;;;;;;;-3.31;75.05;99858.44;105893;1278;137743;-80
2022/01/11 05:53:55;;;;;;;13.80;7.00;;;;;;;-3.32;75.06;99862.05;105991;1278;22619;-81
2022/01/11 05:56:23;;;;;;;13.60;7.60;;;;;;;-3.33;75.24;99866.58;105848;1279;137861;-80
2022/01/11 05:59:05;;;;;;;10.50;5.80;;;;;;;-3.36;75.10;99865.35;106017;1277;22569;-78
2022/01/11 06:01:33;;;;;;;15.70;7.70;;;;;;;-3.37;75.28;99870.80;106015;1279;22585;-78
2022/01/11 06:04:00;;;;;;;21.20;9.90;;;;;;;-3.39;75.23;99873.11;105732;1279;137834;-81
2022/01/11 06:06:27;;;;;;;16.70;9.50;;;;;;;-3.38;75.42;99880.14;105922;1277;24259;-79
2022/01/11 06:08:53;;;;;;;14.20;8.00;;;;;;;-3.36;75.59;99881.34;105894;1279;138350;-79
2022/01/11 06:11:19;;;;;;;16.90;9.60;;;;;;;-3.32;75.24;99887.09;106097;1278;22743;-80
2022/01/11 06:13:47;;;;;;;17.80;9.00;;;;;;;-3.28;75.26;99891.23;105845;1278;138164;-79
2022/01/11 06:16:14;;;;;;;20.20;9.00;;;;;;;-3.26;75.84;99897.97;106258;1277;22625;-79
2022/01/11 06:18:40;;;;;;;17.60;9.00;;;;;;;-3.24;75.82;99904.05;106208;1277;22712;-80
2022/01/11 06:21:14;;;;;;;19.10;9.20;;;;;;;-3.22;75.82;99906.08;106177;1278;137949;-80
2022/01/11 06:23:41;;;;;;;19.00;9.30;;;;;;;-3.23;75.85;99909.10;106047;1278;22569;-79
2022/01/11 06:26:08;;;;;;;19.20;9.50;;;;;;;-3.23;75.78;99912.88;106052;1277;138575;-80
2022/01/11 06:28:34;;;;;;;18.80;9.50;;;;;;;-3.25;75.69;99915.25;106026;1279;22798;-80
2022/01/11 06:31:01;;;;;;;18.30;9.90;;;;;;;-3.26;75.85;99921.05;106192;1278;25376;-81
2022/01/11 06:33:27;;;;;;;21.60;9.50;;;;;;;-3.27;75.68;99925.92;105982;1279;137918;-80
2022/01/11 06:35:53;;;;;;;19.60;10.80;;;;;;;-3.29;75.97;99928.74;106426;1277;25354;-80
2022/01/11 06:38:20;;;;;;;21.60;10.50;;;;;;;-3.29;75.89;99927.01;106073;1277;138272;-80
2022/01/11 06:40:46;;;;;;;17.80;10.40;;;;;;;-3.28;75.87;99929.39;106262;1277;23455;-80
2022/01/11 06:43:13;;;;;;;19.90;9.80;;;;;;;-3.26;75.96;99929.41;106338;1277;22550;-80
2022/01/11 06:45:39;;;;;;;22.00;10.10;;;;;;;-3.22;76.24;99933.40;106176;1277;138146;-80
2022/01/11 06:48:09;;;;;;;20.50;9.80;;;;;;;-3.18;76.55;99937.30;106269;1277;22629;-80
2022/01/11 06:50:36;;;;;;;18.70;10.30;;;;;;;-3.13;76.09;99942.45;105901;1279;137982;-80
2022/01/11 06:53:03;;;;;;;21.00;10.70;;;;;;;-3.08;76.46;99947.71;106086;1279;22595;-80
2022/01/11 06:55:29;;;;;;;20.00;10.20;;;;;;;-3.04;76.25;99952.42;106276;1278;22613;-80
2022/01/11 06:57:56;;;;;;;22.60;10.90;;;;;;;-3.01;76.36;99950.90;106040;1279;137751;-80
2022/01/11 07:00:22;;;;;;;22.60;11.70;;;;;;;-2.98;75.96;99954.93;106313;1277;22563;-80
2022/01/11 07:02:52;;;;;;;22.70;11.00;;;;;;;-2.97;75.85;99956.08;106223;1277;138544;-80
2022/01/11 07:05:40;;;;;;;22.10;11.10;;;;;;;-2.96;75.90;99959.59;106418;1277;24324;-80
2022/01/11 07:08:07;;;;;;;23.90;11.20;;;;;;;-2.95;75.93;99968.54;106198;1276;138345;-80
2022/01/11 07:10:33;;;;;;;23.10;10.80;;;;;;;-2.95;75.99;99975.83;106310;1278;22616;-80
2022/01/11 07:13:02;;;;;;;25.10;12.50;;;;;;;-2.95;76.42;99975.68;106530;1279;24303;-80
2022/01/11 07:15:30;;;;;;;24.70;12.10;;;;;;;-2.94;76.26;99981.04;106273;1278;138347;-80
2022/01/11 07:17:57;;;;;;;22.20;11.50;;;;;;;-2.89;75.94;99984.20;106352;1279;22553;-80
2022/01/11 07:20:26;;;;;;;23.90;11.30;;;;;;;-2.84;75.98;99988.31;105867;1277;139158;-82
2022/01/11 07:22:52;;;;;;;24.90;11.60;;;;;;;-2.79;76.11;99989.38;106045;1277;22561;-80
2022/01/11 07:25:19;;;;;;;19.50;10.70;;;;;;;-2.76;76.21;99991.91;105935;1277;22596;-80
2022/01/11 07:27:47;;;;;;;22.20;10.90;;;;;;;-2.75;75.84;99995.55;106228;1277;138009;-80
2022/01/11 07:30:13;;;;;;;23.20;11.80;;;;;;;-2.76;75.73;99995.80;106236;1277;25377;-80
2022/01/11 07:32:44;;;;;;;23.10;11.20;;;;;;;-2.75;75.73;99996.88;106057;1279;138048;-80
2022/01/11 07:35:11;;;;;;;25.80;12.30;;;;;;;-2.76;75.75;99998.19;105978;1279;23951;-80
2022/01/11 07:37:38;;;;;;;23.30;12.50;;;;;;;-2.78;75.58;99997.08;106285;1278;23450;-80
2022/01/11 07:40:06;;;;;;;21.70;10.60;;;;;;;-2.82;75.53;100005.73;105729;1278;137819;-79
2022/01/11 07:42:33;;;;;;;24.70;12.00;;;;;;;-2.83;75.99;100007.96;106300;1277;22561;-79
2022/01/11 07:45:11;;;;;;;24.70;13.00;;;;;;;-2.82;75.84;100003.45;106127;1277;138136;-81
2022/01/11 07:47:37;;;;;;;24.40;12.40;;;;;;;-2.84;75.80;100003.55;106348;1277;25396;-82
2022/01/11 07:50:06;;;;;;;29.60;15.60;;;;;;;-2.86;75.85;100006.39;106169;1279;138744;-80
2022/01/11 07:52:33;;;;;;;25.00;12.60;;;;;;;-2.86;75.37;100006.58;106313;1278;22573;-80
2022/01/11 07:55:00;;;;;;;23.40;11.60;;;;;;;-2.84;75.88;100008.92;105945;1279;22547;-81
2022/01/11 07:57:29;;;;;;;21.00;10.60;;;;;;;-2.82;75.80;100013.07;106078;1279;138103;-81
2022/01/11 07:59:55;;;;;;;22.40;12.10;;;;;;;-2.86;75.59;100017.27;106184;1277;25382;-80
2022/01/11 08:02:31;;;;;;;27.30;13.40;;;;;;;-2.89;76.37;100013.39;106269;1277;138289;-81
2022/01/11 08:04:57;;;;;;;32.00;12.90;;;;;;;-2.88;76.53;100012.93;106226;1277;22601;-80
2022/01/11 08:07:24;;;;;;;29.40;14.10;;;;;;;-2.87;76.66;100008.95;106213;1277;22629;-80
2022/01/11 08:10:16;;;;;;;33.70;15.40;;;;;;;-2.89;76.08;100011.20;106386;1277;138350;-80
2022/01/11 08:12:44;;;;;;;33.80;15.60;;;;;;;-2.90;76.49;100011.50;106317;1278;22557;-80
2022/01/11 08:15:12;;;;;;;34.10;14.90;;;;;;;-2.87;76.47;100013.24;106199;1278;140152;-80
2022/01/11 08:17:40;;;;;;;40.10;17.60;;;;;;;-2.86;76.51;100017.38;106134;1278;22563;-80
2022/01/11 08:20:07;;;;;;;36.90;17.80;;;;;;;-2.86;76.52;100017.92;105814;1277;138442;-80
2022/01/11 08:22:36;;;;;;;41.80;18.60;;;;;;;-2.93;76.18;100019.42;106271;1277;22592;-80
2022/01/11 08:25:03;;;;;;;37.40;17.40;;;;;;;-3.00;76.16;100018.90;106243;1277;22567;-80
2022/01/11 08:27:33;;;;;;;42.10;19.90;;;;;;;-3.08;76.30;100022.86;106145;1277;137999;-80
2022/01/11 08:30:01;;;;;;;43.70;19.50;;;;;;;-3.13;76.60;100026.27;106182;1278;22806;-81
2022/01/11 08:32:27;;;;;;;40.80;17.80;;;;;;;-3.17;76.87;100027.29;106103;1279;138989;-80
2022/01/11 08:34:54;;;;;;;37.50;19.60;;;;;;;-3.20;76.63;100030.38;106153;1279;22587;-80
2022/01/11 08:37:21;;;;;;;37.70;19.10;;;;;;;-3.25;76.62;100028.81;106078;1278;22572;-80
2022/01/11 08:39:48;;;;;;;37.00;18.80;;;;;;;-3.23;76.98;100033.30;106233;1277;138858;-79
2022/01/11 08:42:14;;;;;;;40.50;17.20;;;;;;;-3.20;76.91;100033.02;106227;1277;22701;-80
2022/01/11 08:44:47;;;;;;;38.50;18.90;;;;;;;-3.20;77.12;100034.95;106004;1277;138049;-80
2022/01/11 08:47:15;;;;;;;40.90;19.10;;;;;;;-3.20;77.34;100033.88;105953;1277;25383;-79
2022/01/11 08:49:43;;;;;;;42.40;21.00;;;;;;;-3.16;77.12;100038.77;106324;1277;25336;-80
2022/01/11 08:52:10;;;;;;;38.70;18.20;;;;;;;-3.11;77.51;100037.63;106418;1278;137991;-80
2022/01/11 08:54:39;;;;;;;38.70;18.90;;;;;;;-3.05;77.19;100029.73;106296;1278;24707;-80
2022/01/11 08:57:07;;;;;;;34.20;16.50;;;;;;;-3.02;76.83;100032.55;105906;1279;138277;-80
2022/01/11 08:59:34;;;;;;;40.20;18.60;;;;;;;-3.04;76.45;100034.61;106055;1280;25395;-80
2022/01/11 09:02:05;;;;;;;31.70;16.30;;;;;;;-3.08;76.66;100031.36;106048;1277;138507;-80
2022/01/11 09:04:31;;;;;;;48.90;22.10;;;;;;;-3.10;76.72;100034.75;106217;1277;22597;-79
2022/01/11 09:07:16;;;;;;;40.50;20.70;;;;;;;-3.07;76.82;100036.84;106101;1276;25216;-80
2022/01/11 09:09:43;;;;;;;44.30;20.40;;;;;;;-2.99;77.16;100039.94;106031;1277;138375;-80
2022/01/11 09:12:13;;;;;;;44.90;20.70;;;;;;;-2.89;77.25;100039.00;106306;1277;25480;-80
2022/01/11 09:14:42;;;;;;;39.60;21.30;;;;;;;-2.80;77.04;100040.04;106193;1277;138307;-80
2022/01/11 09:17:09;;;;;;;39.70;18.80;;;;;;;-2.71;77.36;100040.23;106175;1277;25378;-80
2022/01/11 09:19:36;;;;;;;44.50;22.00;;;;;;;-2.66;76.68;100042.16;106295;1277;22713;-81
2022/01/11 09:22:05;;;;;;;53.10;23.40;;;;;;;-2.59;76.91;100041.07;106123;1278;138299;-80
2022/01/11 09:24:31;;;;;;;45.60;21.60;;;;;;;-2.51;76.60;100044.52;106236;1280;22596;-80
2022/01/11 09:27:04;;;;;;;44.20;20.80;;;;;;;-2.46;76.32;100041.52;106042;1277;138289;-80
2022/01/11 09:29:32;;;;;;;41.00;20.50;;;;;;;-2.46;76.15;100041.27;106144;1277;22551;-80
2022/01/11 09:32:00;;;;;;;46.20;19.70;;;;;;;-2.42;76.23;100039.55;106247;1278;138446;-81
2022/01/11 09:34:27;;;;;;;42.60;20.30;;;;;;;-2.36;76.40;100035.17;106236;1277;25022;-80
2022/01/11 09:36:55;;;;;;;40.80;19.30;;;;;;;-2.28;76.49;100036.85;106099;1277;25304;-80
2022/01/11 09:39:22;;;;;;;38.80;18.80;;;;;;;-2.18;76.53;100040.16;106035;1280;138189;-80
2022/01/11 09:41:49;;;;;;;42.90;20.70;;;;;;;-2.09;75.71;100038.84;106262;1277;25523;-80
2022/01/11 09:44:17;;;;;;;38.80;19.80;;;;;;;-2.02;75.17;100035.47;106360;1278;138517;-80
2022/01/11 09:46:44;;;;;;;42.60;19.60;;;;;;;-1.96;75.04;100035.67;106175;1279;22571;-80
2022/01/11 09:49:12;;;;;;;36.70;19.30;;;;;;;-1.88;74.95;100032.40;105875;1279;254511;-82
2022/01/11 09:51:39;;;;;;;39.80;18.70;;;;;;;-1.82;75.26;100035.09;105922;1277;138302;-81
2022/01/11 09:54:08;;;;;;;34.00;16.80;;;;;;;-1.72;74.94;100033.34;106171;1277;22712;-81
2022/01/11 09:56:37;;;;;;;34.40;17.40;;;;;;;-1.64;74.24;100037.14;106226;1278;138358;-80
2022/01/11 09:59:06;;;;;;;33.60;16.70;;;;;;;-1.59;74.12;100033.02;106342;1278;24245;-80
2022/01/11 10:01:50;;;;;;;37.80;18.10;;;;;;;-1.57;73.64;100033.84;105939;1277;139142;-80
2022/01/11 10:04:41;;;;;;;38.80;18.50;;;;;;;-1.55;73.57;100036.90;106283;1277;30994;-81
2022/01/11 10:07:40;;;;;;;39.60;19.10;;;;;;;-1.53;73.79;100037.66;105912;1277;25472;-81
2022/01/11 10:10:16;;;;;;;39.10;20.20;;;;;;;-1.45;73.90;100041.48;105777;1277;137932;-81
2022/01/11 10:12:55;;;;;;;33.20;16.00;;;;;;;-1.40;73.77;100038.69;106223;1279;24254;-81
2022/01/11 10:15:30;;;;;;;41.00;19.00;;;;;;;-1.41;73.06;100036.26;106857;1278;137919;-81
2022/01/11 10:18:01;;;;;;;41.50;18.50;;;;;;;-1.42;72.97;100034.39;106690;1279;22853;-81
2022/01/11 10:20:29;;;;;;;40.80;19.00;;;;;;;-1.41;72.73;100036.26;106790;1279;138766;-81
2022/01/11 10:23:05;;;;;;;38.40;18.90;;;;;;;-1.39;72.66;100038.07;106789;1277;24340;-84
2022/01/11 10:25:48;;;;;;;36.50;18.90;;;;;;;-1.37;72.33;100036.33;106448;1278;138458;-82
2022/01/11 10:28:15;;;;;;;38.40;18.30;;;;;;;-1.36;72.35;100036.58;106316;1279;25603;-82
2022/01/11 10:30:46;;;;;;;44.70;19.20;;;;;;;-1.33;72.32;100040.42;106032;1279;25387;-83
2022/01/11 10:33:12;;;;;;;35.10;18.60;;;;;;;-1.27;72.58;100042.22;106210;1279;138568;-82
2022/01/11 10:35:43;;;;;;;;;;;;;;;-1.24;72.47;100043.79;106393;1278;22647;-82
2022/01/11 10:38:29;;;;;;;35.70;16.70;;;;;;;-1.22;72.25;100036.29;106232;1278;124142;-83
2022/01/11 10:41:05;;;;;;;35.20;16.40;;;;;;;-1.16;72.26;100039.20;106134;1278;22645;-82
2022/01/11 10:43:42;;;;;;;38.10;17.50;;;;;;;-1.09;72.21;100042.38;106152;1277;138578;-83
2022/01/11 10:46:09;;;;;;;32.20;16.30;;;;;;;-1.04;71.83;100039.77;106138;1277;22543;-82
2022/01/11 10:48:40;;;;;;;34.10;16.40;;;;;;;-1.00;71.73;100041.23;106060;1277;26629;-85
2022/01/11 10:51:15;;;;;;;32.20;15.40;;;;;;;-0.93;71.70;100045.23;106155;1277;138119;-83
2022/01/11 10:53:48;;;;;;;30.00;14.50;;;;;;;-0.84;71.36;100043.89;106358;1277;23491;-83
2022/01/11 10:56:16;;;;;;;27.10;14.70;;;;;;;-0.82;70.62;100037.57;105926;1278;138339;-80
2022/01/11 10:59:08;;;;;;;23.30;11.00;;;;;;;-0.82;70.47;100035.92;106006;1279;23165;-80
2022/01/11 11:01:35;;;;;;;23.60;11.40;;;;;;;-0.83;69.92;100038.02;106137;1279;138177;-81
2022/01/11 11:04:02;;;;;;;33.30;16.70;;;;;;;-0.85;69.84;100035.61;106377;1277;22598;-80
2022/01/11 11:06:29;;;;;;;40.90;19.00;;;;;;;-0.86;70.24;100032.67;106262;1277;22555;-80
2022/01/11 11:08:56;;;;;;;36.90;18.20;;;;;;;-0.81;70.56;100027.66;106335;1277;138500;-80
2022/01/11 11:11:35;;;;;;;27.10;14.10;;;;;;;-0.76;70.61;100028.95;106301;1277;22544;-80
2022/01/11 11:14:17;;;;;;;21.00;11.80;;;;;;;-0.69;69.95;100029.60;106233;1277;138097;-80
2022/01/11 11:17:22;;;;;;;19.00;10.40;;;;;;;-0.65;69.61;100030.52;106155;1278;22579;-83
2022/01/11 11:20:01;;;;;;;18.90;9.50;;;;;;;-0.61;69.38;100027.16;106130;1278;138525;-83
2022/01/11 11:22:29;;;;;;;21.50;10.90;;;;;;;-0.62;68.94;100026.00;106335;1278;22563;-83